sensor_id;sensor_type;location;lat;lon;timestamp;P1;durP1;ratioP1;P2;durP2;ratioP2
65855;SDS011;52631;42.208;24.656;2022-12-18T00:01:32;41.75;;;22.13;;
65855;SDS011;52631;42.208;24.656;2022-12-18T00:03:59;44.05;;;23.60;;
65855;SDS011;52631;42.208;24.656;2022-12-18T00:06:27;45.70;;;24.02;;
65855;SDS011;52631;42.208;24.656;2022-12-18T00:08:54;38.92;;;21.50;;
65855;SDS011;52631;42.208;24.656;2022-12-18T00:11:21;37.00;;;21.02;;
65855;SDS011;52631;42.208;24.656;2022-12-18T00:13:48;38.38;;;20.52;;
65855;SDS011;52631;42.208;24.656;2022-12-18T00:16:15;34.05;;;19.92;;
65855;SDS011;52631;42.208;24.656;2022-12-18T00:18:45;36.40;;;18.95;;
65855;SDS011;52631;42.208;24.656;2022-12-18T00:21:11;37.95;;;20.10;;
65855;SDS011;52631;42.208;24.656;2022-12-18T00:23:37;39.35;;;21.08;;
65855;SDS011;52631;42.208;24.656;2022-12-18T00:26:04;47.33;;;24.95;;
65855;SDS011;52631;42.208;24.656;2022-12-18T00:28:32;42.40;;;21.02;;
65855;SDS011;52631;42.208;24.656;2022-12-18T00:31:05;38.15;;;21.73;;
65855;SDS011;52631;42.208;24.656;2022-12-18T00:33:32;39.08;;;20.83;;
65855;SDS011;52631;42.208;24.656;2022-12-18T00:36:01;41.83;;;20.60;;
65855;SDS011;52631;42.208;24.656;2022-12-18T00:38:30;36.28;;;19.10;;
65855;SDS011;52631;42.208;24.656;2022-12-18T00:40:55;35.58;;;19.77;;
65855;SDS011;52631;42.208;24.656;2022-12-18T00:43:21;32.00;;;19.00;;
65855;SDS011;52631;42.208;24.656;2022-12-18T00:45:46;32.35;;;18.00;;
65855;SDS011;52631;42.208;24.656;2022-12-18T00:48:12;32.33;;;17.38;;
65855;SDS011;52631;42.208;24.656;2022-12-18T00:54:02;29.08;;;16.70;;
65855;SDS011;52631;42.208;24.656;2022-12-18T00:56:28;35.08;;;18.65;;
65855;SDS011;52631;42.208;24.656;2022-12-18T00:58:53;37.88;;;19.33;;
65855;SDS011;52631;42.208;24.656;2022-12-18T01:01:19;37.20;;;19.83;;
65855;SDS011;52631;42.208;24.656;2022-12-18T01:03:44;37.63;;;19.75;;
65855;SDS011;52631;42.208;24.656;2022-12-18T01:06:11;43.15;;;21.38;;
65855;SDS011;52631;42.208;24.656;2022-12-18T01:08:38;49.58;;;22.90;;
65855;SDS011;52631;42.208;24.656;2022-12-18T01:11:07;54.95;;;24.70;;
65855;SDS011;52631;42.208;24.656;2022-12-18T01:13:34;50.83;;;25.48;;
65855;SDS011;52631;42.208;24.656;2022-12-18T01:16:00;60.92;;;26.80;;
65855;SDS011;52631;42.208;24.656;2022-12-18T01:18:25;58.65;;;27.33;;
65855;SDS011;52631;42.208;24.656;2022-12-18T01:20:51;53.35;;;27.13;;
65855;SDS011;52631;42.208;24.656;2022-12-18T01:23:16;65.50;;;28.45;;
65855;SDS011;52631;42.208;24.656;2022-12-18T01:25:42;57.67;;;26.33;;
65855;SDS011;52631;42.208;24.656;2022-12-18T01:28:07;54.65;;;25.83;;
65855;SDS011;52631;42.208;24.656;2022-12-18T01:30:33;58.10;;;27.83;;
65855;SDS011;52631;42.208;24.656;2022-12-18T01:32:58;63.50;;;29.02;;
65855;SDS011;52631;42.208;24.656;2022-12-18T01:35:24;57.28;;;26.98;;
65855;SDS011;52631;42.208;24.656;2022-12-18T01:37:49;59.72;;;28.75;;
65855;SDS011;52631;42.208;24.656;2022-12-18T01:40:19;59.25;;;28.80;;
65855;SDS011;52631;42.208;24.656;2022-12-18T01:42:44;59.42;;;27.85;;
65855;SDS011;52631;42.208;24.656;2022-12-18T01:47:46;48.17;;;23.80;;
65855;SDS011;52631;42.208;24.656;2022-12-18T01:52:50;42.78;;;22.95;;
65855;SDS011;52631;42.208;24.656;2022-12-18T01:55:18;39.42;;;23.02;;
65855;SDS011;52631;42.208;24.656;2022-12-18T01:57:44;48.00;;;22.90;;
65855;SDS011;52631;42.208;24.656;2022-12-18T02:00:15;48.60;;;25.42;;
65855;SDS011;52631;42.208;24.656;2022-12-18T02:02:42;53.80;;;27.10;;
65855;SDS011;52631;42.208;24.656;2022-12-18T02:05:09;56.75;;;28.83;;
65855;SDS011;52631;42.208;24.656;2022-12-18T02:07:52;67.85;;;30.23;;
65855;SDS011;52631;42.208;24.656;2022-12-18T02:18:32;47.78;;;24.80;;
65855;SDS011;52631;42.208;24.656;2022-12-18T02:26:20;48.80;;;23.90;;
65855;SDS011;52631;42.208;24.656;2022-12-18T02:29:05;46.72;;;23.95;;
65855;SDS011;52631;42.208;24.656;2022-12-18T02:31:43;44.97;;;23.27;;
65855;SDS011;52631;42.208;24.656;2022-12-18T02:34:12;39.85;;;22.42;;
65855;SDS011;52631;42.208;24.656;2022-12-18T02:36:39;40.60;;;22.80;;
65855;SDS011;52631;42.208;24.656;2022-12-18T02:39:06;44.38;;;24.65;;
65855;SDS011;52631;42.208;24.656;2022-12-18T02:41:34;43.80;;;22.08;;
65855;SDS011;52631;42.208;24.656;2022-12-18T02:44:02;42.38;;;23.00;;
65855;SDS011;52631;42.208;24.656;2022-12-18T02:49:01;46.20;;;25.88;;
65855;SDS011;52631;42.208;24.656;2022-12-18T02:59:20;45.03;;;25.38;;
65855;SDS011;52631;42.208;24.656;2022-12-18T03:01:57;42.45;;;21.75;;
65855;SDS011;52631;42.208;24.656;2022-12-18T03:04:27;38.87;;;22.20;;
65855;SDS011;52631;42.208;24.656;2022-12-18T03:06:59;43.08;;;21.73;;
65855;SDS011;52631;42.208;24.656;2022-12-18T03:09:29;39.78;;;20.98;;
65855;SDS011;52631;42.208;24.656;2022-12-18T03:12:06;37.77;;;20.40;;
65855;SDS011;52631;42.208;24.656;2022-12-18T03:14:59;38.57;;;18.67;;
65855;SDS011;52631;42.208;24.656;2022-12-18T03:17:35;38.63;;;19.30;;
65855;SDS011;52631;42.208;24.656;2022-12-18T03:20:03;35.85;;;17.83;;
65855;SDS011;52631;42.208;24.656;2022-12-18T03:22:32;34.63;;;19.65;;
65855;SDS011;52631;42.208;24.656;2022-12-18T03:24:58;34.75;;;19.13;;
65855;SDS011;52631;42.208;24.656;2022-12-18T03:27:27;34.75;;;18.88;;
65855;SDS011;52631;42.208;24.656;2022-12-18T03:30:01;32.58;;;17.02;;
65855;SDS011;52631;42.208;24.656;2022-12-18T03:32:33;30.38;;;16.13;;
65855;SDS011;52631;42.208;24.656;2022-12-18T03:35:04;29.50;;;14.90;;
65855;SDS011;52631;42.208;24.656;2022-12-18T03:37:31;26.40;;;13.98;;
65855;SDS011;52631;42.208;24.656;2022-12-18T03:39:56;31.77;;;15.55;;
65855;SDS011;52631;42.208;24.656;2022-12-18T03:50:27;25.27;;;12.68;;
65855;SDS011;52631;42.208;24.656;2022-12-18T03:53:06;24.58;;;11.63;;
65855;SDS011;52631;42.208;24.656;2022-12-18T03:55:54;20.63;;;10.77;;
65855;SDS011;52631;42.208;24.656;2022-12-18T03:58:24;22.42;;;11.48;;
65855;SDS011;52631;42.208;24.656;2022-12-18T04:00:51;18.80;;;9.65;;
65855;SDS011;52631;42.208;24.656;2022-12-18T04:03:18;20.70;;;10.05;;
65855;SDS011;52631;42.208;24.656;2022-12-18T04:05:45;20.58;;;9.45;;
65855;SDS011;52631;42.208;24.656;2022-12-18T04:08:13;17.33;;;9.65;;
65855;SDS011;52631;42.208;24.656;2022-12-18T04:10:38;20.70;;;9.30;;
65855;SDS011;52631;42.208;24.656;2022-12-18T04:13:04;18.98;;;9.18;;
65855;SDS011;52631;42.208;24.656;2022-12-18T04:15:29;20.33;;;10.20;;
65855;SDS011;52631;42.208;24.656;2022-12-18T04:17:57;21.88;;;9.63;;
65855;SDS011;52631;42.208;24.656;2022-12-18T04:20:22;21.58;;;10.02;;
65855;SDS011;52631;42.208;24.656;2022-12-18T04:22:48;20.48;;;9.95;;
65855;SDS011;52631;42.208;24.656;2022-12-18T04:25:13;19.08;;;8.65;;
65855;SDS011;52631;42.208;24.656;2022-12-18T04:27:39;17.00;;;8.88;;
65855;SDS011;52631;42.208;24.656;2022-12-18T04:30:05;16.73;;;9.35;;
65855;SDS011;52631;42.208;24.656;2022-12-18T04:32:31;18.23;;;10.98;;
65855;SDS011;52631;42.208;24.656;2022-12-18T04:34:58;17.75;;;8.90;;
65855;SDS011;52631;42.208;24.656;2022-12-18T04:37:23;14.25;;;7.88;;
65855;SDS011;52631;42.208;24.656;2022-12-18T04:39:48;13.40;;;6.93;;
65855;SDS011;52631;42.208;24.656;2022-12-18T04:42:14;15.60;;;7.82;;
65855;SDS011;52631;42.208;24.656;2022-12-18T04:44:39;12.38;;;7.10;;
65855;SDS011;52631;42.208;24.656;2022-12-18T04:47:05;14.65;;;7.47;;
65855;SDS011;52631;42.208;24.656;2022-12-18T04:49:30;12.90;;;6.85;;
65855;SDS011;52631;42.208;24.656;2022-12-18T04:51:55;11.48;;;6.88;;
65855;SDS011;52631;42.208;24.656;2022-12-18T04:54:21;15.07;;;7.97;;
65855;SDS011;52631;42.208;24.656;2022-12-18T04:56:46;12.43;;;7.70;;
65855;SDS011;52631;42.208;24.656;2022-12-18T04:59:12;13.63;;;7.72;;
65855;SDS011;52631;42.208;24.656;2022-12-18T05:01:38;10.38;;;6.05;;
65855;SDS011;52631;42.208;24.656;2022-12-18T05:04:03;12.32;;;7.32;;
65855;SDS011;52631;42.208;24.656;2022-12-18T05:06:29;10.45;;;6.25;;
65855;SDS011;52631;42.208;24.656;2022-12-18T05:08:54;11.07;;;5.15;;
65855;SDS011;52631;42.208;24.656;2022-12-18T05:11:20;8.18;;;4.10;;
65855;SDS011;52631;42.208;24.656;2022-12-18T05:13:45;8.48;;;5.63;;
65855;SDS011;52631;42.208;24.656;2022-12-18T05:16:11;11.30;;;5.80;;
65855;SDS011;52631;42.208;24.656;2022-12-18T05:18:37;8.90;;;4.00;;
65855;SDS011;52631;42.208;24.656;2022-12-18T05:21:03;10.68;;;5.88;;
65855;SDS011;52631;42.208;24.656;2022-12-18T05:23:28;8.90;;;4.60;;
65855;SDS011;52631;42.208;24.656;2022-12-18T05:25:55;9.48;;;4.70;;
65855;SDS011;52631;42.208;24.656;2022-12-18T05:28:25;9.32;;;4.70;;
65855;SDS011;52631;42.208;24.656;2022-12-18T05:30:53;8.77;;;4.35;;
65855;SDS011;52631;42.208;24.656;2022-12-18T05:33:20;7.30;;;4.28;;
65855;SDS011;52631;42.208;24.656;2022-12-18T05:35:53;9.77;;;4.30;;
65855;SDS011;52631;42.208;24.656;2022-12-18T05:38:21;9.25;;;4.72;;
65855;SDS011;52631;42.208;24.656;2022-12-18T05:40:48;6.90;;;3.08;;
65855;SDS011;52631;42.208;24.656;2022-12-18T05:43:14;8.00;;;4.28;;
65855;SDS011;52631;42.208;24.656;2022-12-18T05:45:40;8.93;;;4.07;;
65855;SDS011;52631;42.208;24.656;2022-12-18T05:48:06;7.10;;;4.63;;
65855;SDS011;52631;42.208;24.656;2022-12-18T05:50:35;7.45;;;4.03;;
65855;SDS011;52631;42.208;24.656;2022-12-18T05:53:04;11.90;;;5.65;;
65855;SDS011;52631;42.208;24.656;2022-12-18T05:55:37;9.05;;;5.32;;
65855;SDS011;52631;42.208;24.656;2022-12-18T05:58:04;7.78;;;4.30;;
65855;SDS011;52631;42.208;24.656;2022-12-18T06:00:30;8.00;;;4.40;;
65855;SDS011;52631;42.208;24.656;2022-12-18T06:02:57;7.72;;;4.47;;
65855;SDS011;52631;42.208;24.656;2022-12-18T06:05:23;9.20;;;5.38;;
65855;SDS011;52631;42.208;24.656;2022-12-18T06:07:49;9.25;;;4.85;;
65855;SDS011;52631;42.208;24.656;2022-12-18T06:10:14;6.88;;;4.47;;
65855;SDS011;52631;42.208;24.656;2022-12-18T06:12:40;6.05;;;3.13;;
65855;SDS011;52631;42.208;24.656;2022-12-18T06:15:05;7.65;;;3.97;;
65855;SDS011;52631;42.208;24.656;2022-12-18T06:17:32;6.88;;;3.50;;
65855;SDS011;52631;42.208;24.656;2022-12-18T06:19:58;8.57;;;4.53;;
65855;SDS011;52631;42.208;24.656;2022-12-18T06:22:25;13.98;;;5.22;;
65855;SDS011;52631;42.208;24.656;2022-12-18T06:24:51;10.77;;;4.53;;
65855;SDS011;52631;42.208;24.656;2022-12-18T06:27:16;7.97;;;4.97;;
65855;SDS011;52631;42.208;24.656;2022-12-18T06:29:42;7.28;;;3.97;;
65855;SDS011;52631;42.208;24.656;2022-12-18T06:32:09;10.20;;;5.57;;
65855;SDS011;52631;42.208;24.656;2022-12-18T06:34:36;8.85;;;4.80;;
65855;SDS011;52631;42.208;24.656;2022-12-18T06:37:02;7.22;;;4.40;;
65855;SDS011;52631;42.208;24.656;2022-12-18T06:39:29;9.02;;;5.05;;
65855;SDS011;52631;42.208;24.656;2022-12-18T06:41:54;8.90;;;4.68;;
65855;SDS011;52631;42.208;24.656;2022-12-18T06:44:20;8.88;;;4.45;;
65855;SDS011;52631;42.208;24.656;2022-12-18T06:46:45;9.85;;;4.82;;
65855;SDS011;52631;42.208;24.656;2022-12-18T06:49:11;8.77;;;4.50;;
65855;SDS011;52631;42.208;24.656;2022-12-18T06:51:36;9.45;;;4.70;;
65855;SDS011;52631;42.208;24.656;2022-12-18T06:54:02;8.80;;;4.20;;
65855;SDS011;52631;42.208;24.656;2022-12-18T06:56:28;9.00;;;5.30;;
65855;SDS011;52631;42.208;24.656;2022-12-18T06:58:54;9.25;;;4.45;;
65855;SDS011;52631;42.208;24.656;2022-12-18T07:01:20;8.90;;;4.22;;
65855;SDS011;52631;42.208;24.656;2022-12-18T07:03:46;9.73;;;5.10;;
65855;SDS011;52631;42.208;24.656;2022-12-18T07:06:17;8.88;;;4.60;;
65855;SDS011;52631;42.208;24.656;2022-12-18T07:08:44;7.82;;;4.70;;
65855;SDS011;52631;42.208;24.656;2022-12-18T07:11:10;8.32;;;4.95;;
65855;SDS011;52631;42.208;24.656;2022-12-18T07:13:37;8.07;;;5.15;;
65855;SDS011;52631;42.208;24.656;2022-12-18T07:16:03;8.63;;;4.03;;
65855;SDS011;52631;42.208;24.656;2022-12-18T07:18:30;6.30;;;3.60;;
65855;SDS011;52631;42.208;24.656;2022-12-18T07:20:57;7.07;;;4.32;;
65855;SDS011;52631;42.208;24.656;2022-12-18T07:23:22;8.45;;;4.72;;
65855;SDS011;52631;42.208;24.656;2022-12-18T07:25:48;8.60;;;4.78;;
65855;SDS011;52631;42.208;24.656;2022-12-18T07:28:13;9.77;;;5.32;;
65855;SDS011;52631;42.208;24.656;2022-12-18T07:30:39;5.75;;;3.47;;
65855;SDS011;52631;42.208;24.656;2022-12-18T07:33:06;7.60;;;4.03;;
65855;SDS011;52631;42.208;24.656;2022-12-18T07:35:32;8.38;;;4.47;;
65855;SDS011;52631;42.208;24.656;2022-12-18T07:38:01;7.50;;;3.75;;
65855;SDS011;52631;42.208;24.656;2022-12-18T07:40:26;8.77;;;4.72;;
65855;SDS011;52631;42.208;24.656;2022-12-18T07:42:52;8.27;;;4.72;;
65855;SDS011;52631;42.208;24.656;2022-12-18T07:45:17;7.93;;;4.40;;
65855;SDS011;52631;42.208;24.656;2022-12-18T07:47:43;8.32;;;4.63;;
65855;SDS011;52631;42.208;24.656;2022-12-18T07:50:08;9.68;;;5.88;;
65855;SDS011;52631;42.208;24.656;2022-12-18T07:52:35;8.15;;;4.75;;
65855;SDS011;52631;42.208;24.656;2022-12-18T07:55:01;10.02;;;4.30;;
65855;SDS011;52631;42.208;24.656;2022-12-18T07:57:27;8.45;;;3.55;;
65855;SDS011;52631;42.208;24.656;2022-12-18T07:59:52;8.68;;;4.25;;
65855;SDS011;52631;42.208;24.656;2022-12-18T08:02:18;10.48;;;4.47;;
65855;SDS011;52631;42.208;24.656;2022-12-18T08:04:43;6.55;;;4.03;;
65855;SDS011;52631;42.208;24.656;2022-12-18T08:07:09;9.35;;;4.40;;
65855;SDS011;52631;42.208;24.656;2022-12-18T08:09:34;10.75;;;4.97;;
65855;SDS011;52631;42.208;24.656;2022-12-18T08:12:00;8.13;;;4.25;;
65855;SDS011;52631;42.208;24.656;2022-12-18T08:14:25;7.35;;;3.75;;
65855;SDS011;52631;42.208;24.656;2022-12-18T08:16:51;8.27;;;4.03;;
65855;SDS011;52631;42.208;24.656;2022-12-18T08:19:17;7.30;;;3.60;;
65855;SDS011;52631;42.208;24.656;2022-12-18T08:21:42;7.85;;;3.58;;
65855;SDS011;52631;42.208;24.656;2022-12-18T08:24:08;8.30;;;5.13;;
65855;SDS011;52631;42.208;24.656;2022-12-18T08:26:34;8.45;;;4.78;;
65855;SDS011;52631;42.208;24.656;2022-12-18T08:28:59;8.75;;;3.83;;
65855;SDS011;52631;42.208;24.656;2022-12-18T08:31:26;9.10;;;5.00;;
65855;SDS011;52631;42.208;24.656;2022-12-18T08:33:52;7.78;;;4.45;;
65855;SDS011;52631;42.208;24.656;2022-12-18T08:36:18;15.07;;;4.65;;
65855;SDS011;52631;42.208;24.656;2022-12-18T08:38:45;10.23;;;4.80;;
65855;SDS011;52631;42.208;24.656;2022-12-18T08:41:11;10.68;;;4.35;;
65855;SDS011;52631;42.208;24.656;2022-12-18T08:43:38;11.30;;;5.82;;
65855;SDS011;52631;42.208;24.656;2022-12-18T08:46:23;9.95;;;5.50;;
65855;SDS011;52631;42.208;24.656;2022-12-18T08:48:50;9.90;;;5.55;;
65855;SDS011;52631;42.208;24.656;2022-12-18T08:51:17;8.10;;;4.47;;
65855;SDS011;52631;42.208;24.656;2022-12-18T08:53:43;8.50;;;4.15;;
65855;SDS011;52631;42.208;24.656;2022-12-18T08:56:09;11.15;;;5.72;;
65855;SDS011;52631;42.208;24.656;2022-12-18T08:58:36;6.50;;;3.97;;
65855;SDS011;52631;42.208;24.656;2022-12-18T09:01:02;12.43;;;6.25;;
65855;SDS011;52631;42.208;24.656;2022-12-18T09:03:30;11.50;;;5.25;;
65855;SDS011;52631;42.208;24.656;2022-12-18T09:05:55;9.18;;;4.82;;
65855;SDS011;52631;42.208;24.656;2022-12-18T09:08:21;12.55;;;6.25;;
65855;SDS011;52631;42.208;24.656;2022-12-18T09:10:47;7.72;;;4.93;;
65855;SDS011;52631;42.208;24.656;2022-12-18T09:13:14;8.98;;;4.97;;
65855;SDS011;52631;42.208;24.656;2022-12-18T09:15:44;9.43;;;5.20;;
65855;SDS011;52631;42.208;24.656;2022-12-18T09:18:11;9.80;;;5.67;;
65855;SDS011;52631;42.208;24.656;2022-12-18T09:20:37;9.57;;;6.10;;
65855;SDS011;52631;42.208;24.656;2022-12-18T09:23:03;10.38;;;4.70;;
65855;SDS011;52631;42.208;24.656;2022-12-18T09:25:29;8.43;;;4.65;;
65855;SDS011;52631;42.208;24.656;2022-12-18T09:28:05;8.18;;;4.90;;
65855;SDS011;52631;42.208;24.656;2022-12-18T09:30:32;9.85;;;4.75;;
65855;SDS011;52631;42.208;24.656;2022-12-18T09:33:00;6.10;;;3.90;;
65855;SDS011;52631;42.208;24.656;2022-12-18T09:35:26;7.63;;;4.32;;
65855;SDS011;52631;42.208;24.656;2022-12-18T09:37:53;8.52;;;4.43;;
65855;SDS011;52631;42.208;24.656;2022-12-18T09:40:20;10.38;;;4.57;;
65855;SDS011;52631;42.208;24.656;2022-12-18T09:42:49;10.25;;;5.13;;
65855;SDS011;52631;42.208;24.656;2022-12-18T09:45:17;12.32;;;5.13;;
65855;SDS011;52631;42.208;24.656;2022-12-18T09:47:43;8.32;;;4.15;;
65855;SDS011;52631;42.208;24.656;2022-12-18T09:50:53;9.45;;;5.47;;
65855;SDS011;52631;42.208;24.656;2022-12-18T09:53:04;10.68;;;5.55;;
65855;SDS011;52631;42.208;24.656;2022-12-18T09:55:36;9.25;;;4.40;;
65855;SDS011;52631;42.208;24.656;2022-12-18T10:03:01;9.15;;;4.38;;
65855;SDS011;52631;42.208;24.656;2022-12-18T10:08:02;20.88;;;9.82;;
65855;SDS011;52631;42.208;24.656;2022-12-18T10:10:59;16.73;;;6.78;;
65855;SDS011;52631;42.208;24.656;2022-12-18T10:13:39;13.82;;;6.90;;
65855;SDS011;52631;42.208;24.656;2022-12-18T10:27:27;12.07;;;6.20;;
65855;SDS011;52631;42.208;24.656;2022-12-18T10:29:54;11.77;;;6.00;;
65855;SDS011;52631;42.208;24.656;2022-12-18T10:32:21;10.57;;;5.97;;
65855;SDS011;52631;42.208;24.656;2022-12-18T10:34:52;12.10;;;6.38;;
65855;SDS011;52631;42.208;24.656;2022-12-18T10:37:20;11.30;;;6.00;;
65855;SDS011;52631;42.208;24.656;2022-12-18T10:40:09;13.68;;;6.35;;
65855;SDS011;52631;42.208;24.656;2022-12-18T10:42:35;11.45;;;6.57;;
65855;SDS011;52631;42.208;24.656;2022-12-18T10:45:02;17.35;;;7.55;;
65855;SDS011;52631;42.208;24.656;2022-12-18T10:47:31;13.93;;;7.82;;
65855;SDS011;52631;42.208;24.656;2022-12-18T10:49:59;11.52;;;6.80;;
65855;SDS011;52631;42.208;24.656;2022-12-18T10:52:24;14.48;;;7.15;;
65855;SDS011;52631;42.208;24.656;2022-12-18T10:55:02;10.88;;;5.68;;
65855;SDS011;52631;42.208;24.656;2022-12-18T10:59:56;11.00;;;5.57;;
65855;SDS011;52631;42.208;24.656;2022-12-18T11:02:35;12.25;;;6.85;;
65855;SDS011;52631;42.208;24.656;2022-12-18T11:05:22;12.13;;;6.05;;
65855;SDS011;52631;42.208;24.656;2022-12-18T11:07:55;14.10;;;6.43;;
65855;SDS011;52631;42.208;24.656;2022-12-18T11:10:23;13.13;;;7.15;;
65855;SDS011;52631;42.208;24.656;2022-12-18T11:12:51;12.63;;;6.93;;
65855;SDS011;52631;42.208;24.656;2022-12-18T11:15:19;12.23;;;7.32;;
65855;SDS011;52631;42.208;24.656;2022-12-18T11:17:47;12.65;;;7.20;;
65855;SDS011;52631;42.208;24.656;2022-12-18T11:20:32;13.43;;;7.53;;
65855;SDS011;52631;42.208;24.656;2022-12-18T11:23:00;15.95;;;8.57;;
65855;SDS011;52631;42.208;24.656;2022-12-18T11:25:28;16.85;;;9.55;;
65855;SDS011;52631;42.208;24.656;2022-12-18T11:27:59;14.50;;;7.63;;
65855;SDS011;52631;42.208;24.656;2022-12-18T11:30:34;16.13;;;8.07;;
65855;SDS011;52631;42.208;24.656;2022-12-18T11:33:15;16.00;;;7.88;;
65855;SDS011;52631;42.208;24.656;2022-12-18T11:35:50;17.13;;;8.90;;
65855;SDS011;52631;42.208;24.656;2022-12-18T11:38:22;16.25;;;8.60;;
65855;SDS011;52631;42.208;24.656;2022-12-18T11:46:13;15.68;;;8.85;;
65855;SDS011;52631;42.208;24.656;2022-12-18T11:51:36;17.30;;;8.65;;
65855;SDS011;52631;42.208;24.656;2022-12-18T11:54:17;14.85;;;8.20;;
65855;SDS011;52631;42.208;24.656;2022-12-18T11:56:46;13.93;;;7.95;;
65855;SDS011;52631;42.208;24.656;2022-12-18T12:02:20;16.20;;;8.55;;
65855;SDS011;52631;42.208;24.656;2022-12-18T12:21:42;20.08;;;12.82;;
65855;SDS011;52631;42.208;24.656;2022-12-18T12:40:29;15.70;;;8.57;;
65855;SDS011;52631;42.208;24.656;2022-12-18T12:42:56;15.00;;;8.23;;
65855;SDS011;52631;42.208;24.656;2022-12-18T12:45:48;14.60;;;8.07;;
65855;SDS011;52631;42.208;24.656;2022-12-18T12:48:28;15.32;;;8.30;;
65855;SDS011;52631;42.208;24.656;2022-12-18T12:51:20;13.23;;;7.70;;
65855;SDS011;52631;42.208;24.656;2022-12-18T12:53:48;15.57;;;7.82;;
65855;SDS011;52631;42.208;24.656;2022-12-18T12:56:18;16.10;;;7.88;;
65855;SDS011;52631;42.208;24.656;2022-12-18T13:04:12;12.80;;;6.90;;
65855;SDS011;52631;42.208;24.656;2022-12-18T13:06:46;14.43;;;7.82;;
65855;SDS011;52631;42.208;24.656;2022-12-18T13:09:19;13.80;;;7.07;;
65855;SDS011;52631;42.208;24.656;2022-12-18T13:11:50;13.95;;;6.47;;
65855;SDS011;52631;42.208;24.656;2022-12-18T13:14:36;12.73;;;6.95;;
65855;SDS011;52631;42.208;24.656;2022-12-18T13:19:42;14.77;;;9.40;;
65855;SDS011;52631;42.208;24.656;2022-12-18T13:22:22;18.50;;;11.00;;
65855;SDS011;52631;42.208;24.656;2022-12-18T13:24:48;17.08;;;8.98;;
65855;SDS011;52631;42.208;24.656;2022-12-18T13:40:57;16.10;;;8.50;;
65855;SDS011;52631;42.208;24.656;2022-12-18T13:43:24;14.63;;;7.38;;
65855;SDS011;52631;42.208;24.656;2022-12-18T13:49:02;24.27;;;10.85;;
65855;SDS011;52631;42.208;24.656;2022-12-18T13:51:29;52.67;;;20.65;;
65855;SDS011;52631;42.208;24.656;2022-12-18T13:54:01;68.82;;;26.08;;
65855;SDS011;52631;42.208;24.656;2022-12-18T13:56:47;46.15;;;20.17;;
65855;SDS011;52631;42.208;24.656;2022-12-18T13:59:18;27.73;;;13.68;;
65855;SDS011;52631;42.208;24.656;2022-12-18T14:01:48;17.50;;;9.27;;
65855;SDS011;52631;42.208;24.656;2022-12-18T14:04:32;14.77;;;7.18;;
65855;SDS011;52631;42.208;24.656;2022-12-18T14:07:02;14.85;;;7.97;;
65855;SDS011;52631;42.208;24.656;2022-12-18T14:09:34;15.57;;;7.47;;
65855;SDS011;52631;42.208;24.656;2022-12-18T14:12:03;12.90;;;8.02;;
65855;SDS011;52631;42.208;24.656;2022-12-18T14:14:47;13.43;;;7.55;;
65855;SDS011;52631;42.208;24.656;2022-12-18T14:17:14;15.48;;;8.05;;
65855;SDS011;52631;42.208;24.656;2022-12-18T14:19:41;15.05;;;8.45;;
65855;SDS011;52631;42.208;24.656;2022-12-18T14:22:18;16.57;;;8.97;;
65855;SDS011;52631;42.208;24.656;2022-12-18T14:24:46;14.60;;;7.63;;
65855;SDS011;52631;42.208;24.656;2022-12-18T14:27:22;17.17;;;8.18;;
65855;SDS011;52631;42.208;24.656;2022-12-18T14:29:50;20.23;;;9.55;;
65855;SDS011;52631;42.208;24.656;2022-12-18T14:32:19;19.27;;;9.60;;
65855;SDS011;52631;42.208;24.656;2022-12-18T14:34:48;20.40;;;10.02;;
65855;SDS011;52631;42.208;24.656;2022-12-18T14:37:23;21.73;;;10.77;;
65855;SDS011;52631;42.208;24.656;2022-12-18T14:39:59;29.10;;;14.05;;
65855;SDS011;52631;42.208;24.656;2022-12-18T14:42:27;24.75;;;9.65;;
65855;SDS011;52631;42.208;24.656;2022-12-18T14:47:55;21.15;;;11.40;;
65855;SDS011;52631;42.208;24.656;2022-12-18T14:50:21;24.42;;;11.30;;
65855;SDS011;52631;42.208;24.656;2022-12-18T14:52:47;22.73;;;11.23;;
65855;SDS011;52631;42.208;24.656;2022-12-18T14:55:17;22.02;;;11.60;;
65855;SDS011;52631;42.208;24.656;2022-12-18T14:57:51;22.45;;;11.30;;
65855;SDS011;52631;42.208;24.656;2022-12-18T15:00:22;26.58;;;13.80;;
65855;SDS011;52631;42.208;24.656;2022-12-18T15:02:55;26.58;;;12.77;;
65855;SDS011;52631;42.208;24.656;2022-12-18T15:05:25;27.33;;;12.60;;
65855;SDS011;52631;42.208;24.656;2022-12-18T15:07:53;22.73;;;12.13;;
65855;SDS011;52631;42.208;24.656;2022-12-18T15:10:24;23.35;;;12.27;;
65855;SDS011;52631;42.208;24.656;2022-12-18T15:20:39;22.52;;;12.25;;
65855;SDS011;52631;42.208;24.656;2022-12-18T15:23:19;26.90;;;14.45;;
65855;SDS011;52631;42.208;24.656;2022-12-18T15:26:03;35.60;;;15.48;;
65855;SDS011;52631;42.208;24.656;2022-12-18T15:36:09;27.70;;;14.05;;
65855;SDS011;52631;42.208;24.656;2022-12-18T15:38:36;29.70;;;15.00;;
65855;SDS011;52631;42.208;24.656;2022-12-18T15:41:02;28.25;;;14.98;;
65855;SDS011;52631;42.208;24.656;2022-12-18T15:43:29;31.25;;;13.60;;
65855;SDS011;52631;42.208;24.656;2022-12-18T15:46:05;27.42;;;14.02;;
65855;SDS011;52631;42.208;24.656;2022-12-18T15:48:33;30.60;;;14.47;;
65855;SDS011;52631;42.208;24.656;2022-12-18T15:50:59;30.33;;;15.30;;
65855;SDS011;52631;42.208;24.656;2022-12-18T15:53:27;30.40;;;14.35;;
65855;SDS011;52631;42.208;24.656;2022-12-18T15:55:57;33.90;;;15.82;;
65855;SDS011;52631;42.208;24.656;2022-12-18T15:58:41;36.67;;;16.45;;
65855;SDS011;52631;42.208;24.656;2022-12-18T16:01:07;36.60;;;16.73;;
65855;SDS011;52631;42.208;24.656;2022-12-18T16:03:34;27.48;;;14.68;;
65855;SDS011;52631;42.208;24.656;2022-12-18T16:05:59;35.88;;;15.75;;
65855;SDS011;52631;42.208;24.656;2022-12-18T16:08:27;33.88;;;15.55;;
65855;SDS011;52631;42.208;24.656;2022-12-18T16:10:56;34.13;;;15.93;;
65855;SDS011;52631;42.208;24.656;2022-12-18T16:13:22;33.00;;;16.55;;
65855;SDS011;52631;42.208;24.656;2022-12-18T16:15:48;31.88;;;14.90;;
65855;SDS011;52631;42.208;24.656;2022-12-18T16:18:13;34.85;;;16.52;;
65855;SDS011;52631;42.208;24.656;2022-12-18T16:20:39;34.30;;;16.92;;
65855;SDS011;52631;42.208;24.656;2022-12-18T16:23:06;41.83;;;18.30;;
65855;SDS011;52631;42.208;24.656;2022-12-18T16:25:32;39.35;;;17.58;;
65855;SDS011;52631;42.208;24.656;2022-12-18T16:27:58;40.25;;;18.02;;
65855;SDS011;52631;42.208;24.656;2022-12-18T16:30:27;41.67;;;18.45;;
65855;SDS011;52631;42.208;24.656;2022-12-18T16:32:55;47.35;;;20.33;;
65855;SDS011;52631;42.208;24.656;2022-12-18T16:35:21;58.88;;;28.50;;
65855;SDS011;52631;42.208;24.656;2022-12-18T16:37:47;59.30;;;26.40;;
65855;SDS011;52631;42.208;24.656;2022-12-18T16:40:13;54.50;;;25.52;;
65855;SDS011;52631;42.208;24.656;2022-12-18T16:42:40;58.45;;;28.08;;
65855;SDS011;52631;42.208;24.656;2022-12-18T16:45:07;54.20;;;26.63;;
65855;SDS011;52631;42.208;24.656;2022-12-18T16:47:34;46.20;;;20.50;;
65855;SDS011;52631;42.208;24.656;2022-12-18T16:50:03;43.55;;;22.08;;
65855;SDS011;52631;42.208;24.656;2022-12-18T16:52:29;45.53;;;21.58;;
65855;SDS011;52631;42.208;24.656;2022-12-18T16:54:55;46.72;;;22.35;;
65855;SDS011;52631;42.208;24.656;2022-12-18T16:57:20;43.85;;;20.42;;
65855;SDS011;52631;42.208;24.656;2022-12-18T16:59:46;44.30;;;19.33;;